Time;durP1;ratioP1;P1;durP2;ratioP2;P2;SDS_P1;SDS_P2;PMS_P1;PMS_P2;Temp;Humidity;BMP_temperature;BMP_pressure;BME280_temperature;BME280_humidity;BME280_pressure;Samples;Min_cycle;Max_cycle;Signal;HPM_P1;HPM_P2
2022/11/06 00:01:44;;;;;;;25.05;11.45;;;;;;;9.46;97.34;100948.83;1675645;84;26392;-77
2022/11/06 00:04:10;;;;;;;20.60;10.80;;;;;;;9.46;97.26;100956.86;1686196;83;27520;-77
2022/11/06 00:06:48;;;;;;;20.05;11.60;;;;;;;9.43;97.17;100955.03;1692802;84;26442;-77
2022/11/06 00:09:19;;;;;;;23.55;11.00;;;;;;;9.43;97.16;100949.69;1690601;84;25400;-78
2022/11/06 00:11:47;;;;;;;20.25;10.72;;;;;;;9.43;97.17;100948.35;1685240;84;25758;-77
2022/11/06 00:14:14;;;;;;;17.75;10.18;;;;;;;9.41;97.06;100947.16;1688533;84;25760;-77
2022/11/06 00:16:42;;;;;;;23.40;11.08;;;;;;;9.39;97.15;100955.05;1664827;84;28283;-78
2022/11/06 00:19:09;;;;;;;19.05;10.80;;;;;;;9.37;97.06;100944.50;1687146;84;26458;-77
2022/11/06 00:21:36;;;;;;;24.77;11.12;;;;;;;9.34;97.04;100948.87;1716535;82;25775;-77
2022/11/06 00:24:05;;;;;;;22.37;11.65;;;;;;;9.31;97.12;100952.71;1682009;84;26594;-77
2022/11/06 00:26:33;;;;;;;20.68;9.83;;;;;;;9.32;97.23;100958.38;1678322;84;25770;-77
2022/11/06 00:29:01;;;;;;;25.40;11.85;;;;;;;9.31;97.13;100958.06;1711655;82;27471;-77
2022/11/06 00:31:31;;;;;;;19.98;11.50;;;;;;;9.31;97.11;100959.39;1718414;82;25873;-77
2022/11/06 00:34:00;;;;;;;23.05;10.35;;;;;;;9.30;96.98;100967.59;1687384;83;25771;-78
2022/11/06 00:36:29;;;;;;;21.12;11.50;;;;;;;9.27;96.87;100969.26;1682132;84;25737;-77
2022/11/06 00:38:57;;;;;;;26.65;11.43;;;;;;;9.25;96.92;100975.28;1684762;83;25901;-77
2022/11/06 00:41:24;;;;;;;21.57;10.13;;;;;;;9.23;97.02;100977.28;1692191;83;27545;-77
2022/11/06 00:43:57;;;;;;;24.00;11.97;;;;;;;9.23;97.08;100976.80;1686238;83;25911;-77
2022/11/06 00:46:27;;;;;;;20.70;11.68;;;;;;;9.22;97.20;100983.13;1683526;84;26251;-77
2022/11/06 00:48:54;;;;;;;24.95;11.88;;;;;;;9.23;97.22;100986.64;1678250;83;25848;-78
2022/11/06 00:51:31;;;;;;;18.82;10.95;;;;;;;9.25;97.30;100990.82;1697496;83;26132;-77
2022/11/06 00:54:01;;;;;;;25.60;11.48;;;;;;;9.25;97.17;100994.83;1688651;84;27465;-76
2022/11/06 00:56:29;;;;;;;27.60;12.33;;;;;;;9.24;97.13;100994.97;1686395;84;26081;-76
2022/11/06 00:59:02;;;;;;;21.62;11.50;;;;;;;9.21;96.85;100997.52;1686926;84;26359;-76
2022/11/06 01:01:36;;;;;;;19.32;11.15;;;;;;;9.19;96.90;101002.69;1687474;84;25834;-76
2022/11/06 01:04:07;;;;;;;23.50;12.75;;;;;;;9.18;97.01;101005.01;1693929;84;26492;-76
2022/11/06 01:06:38;;;;;;;22.48;12.13;;;;;;;9.18;97.10;101001.00;1695560;84;27463;-76
2022/11/06 01:09:05;;;;;;;21.52;10.98;;;;;;;9.19;97.02;101005.36;1687846;84;31770;-76
2022/11/06 01:11:39;;;;;;;22.40;12.23;;;;;;;9.17;96.82;101005.50;1686939;84;25748;-76
2022/11/06 01:14:08;;;;;;;24.77;12.05;;;;;;;9.16;96.79;101006.52;1696121;84;26237;-76
2022/11/06 01:16:34;;;;;;;22.50;11.40;;;;;;;9.14;96.69;101000.51;1695636;84;25775;-77
2022/11/06 01:19:01;;;;;;;26.45;11.03;;;;;;;9.13;96.64;101004.17;1693957;84;27538;-76
2022/11/06 01:21:34;;;;;;;24.05;12.30;;;;;;;9.11;96.61;100999.50;1691927;84;25871;-77
2022/11/06 01:24:11;;;;;;;25.82;13.10;;;;;;;9.12;96.58;100997.67;1694455;83;25729;-76
2022/11/06 01:26:39;;;;;;;24.45;11.20;;;;;;;9.11;96.54;100997.34;1690398;84;25822;-77
2022/11/06 01:29:10;;;;;;;24.98;11.65;;;;;;;9.10;96.57;100998.34;1693449;84;26513;-76
2022/11/06 01:31:36;;;;;;;24.02;11.33;;;;;;;9.09;96.52;100996.66;1700559;82;27627;-77
2022/11/06 01:34:04;;;;;;;27.17;11.73;;;;;;;9.07;96.44;100995.98;1714590;82;25737;-76
2022/11/06 01:36:31;;;;;;;22.67;10.88;;;;;;;9.07;96.49;100995.98;1707338;82;25737;-76
2022/11/06 01:39:02;;;;;;;23.75;11.45;;;;;;;9.06;96.57;101003.69;1685559;84;25823;-77
2022/11/06 01:41:34;;;;;;;25.02;11.55;;;;;;;9.05;96.50;101004.67;1709383;82;25763;-76
2022/11/06 01:44:15;;;;;;;25.23;12.05;;;;;;;9.05;96.50;101004.67;1688151;83;27561;-77
2022/11/06 01:46:41;;;;;;;22.27;11.48;;;;;;;9.02;96.39;101008.54;1680121;83;25878;-77
2022/11/06 01:49:12;;;;;;;22.30;11.90;;;;;;;9.01;96.49;101002.84;1705873;83;25669;-77
2022/11/06 01:51:50;;;;;;;24.90;11.95;;;;;;;9.01;96.44;101006.86;1717065;82;25864;-77
2022/11/06 01:54:19;;;;;;;22.48;11.50;;;;;;;9.00;96.38;101000.35;1678311;83;25901;-77
2022/11/06 01:56:49;;;;;;;20.37;11.97;;;;;;;8.99;96.20;101002.67;1688572;84;27552;-77
2022/11/06 01:59:18;;;;;;;24.27;11.20;;;;;;;8.97;96.03;101004.68;1706174;83;25773;-77
2022/11/06 02:01:45;;;;;;;27.60;12.37;;;;;;;8.94;96.08;101011.19;1667359;84;26580;-77
2022/11/06 02:04:22;;;;;;;22.95;12.25;;;;;;;8.92;96.05;101007.00;1719834;82;26323;-77
2022/11/06 02:06:49;;;;;;;23.45;10.70;;;;;;;8.90;95.94;101007.67;1694003;83;26416;-77
2022/11/06 02:09:17;;;;;;;19.65;11.10;;;;;;;8.88;95.84;101015.86;1700328;83;28228;-77
2022/11/06 02:11:48;;;;;;;23.87;11.55;;;;;;;8.86;95.79;101017.86;1682008;84;26724;-77
2022/11/06 02:14:57;;;;;;;23.05;11.88;;;;;;;8.86;95.76;101015.69;1713320;82;25725;-77
2022/11/06 02:17:44;;;;;;;18.82;12.07;;;;;;;8.85;95.79;101020.70;1686702;84;25897;-77
2022/11/06 02:20:19;;;;;;;23.90;12.63;;;;;;;8.82;95.75;101025.03;1675525;83;25820;-77
2022/11/06 02:22:53;;;;;;;21.35;11.75;;;;;;;8.78;95.75;101025.03;1707603;83;27463;-77
2022/11/06 02:25:49;;;;;;;27.17;12.65;;;;;;;8.75;95.74;101034.20;1679135;84;25890;-78
2022/11/06 02:28:30;;;;;;;26.48;12.25;;;;;;;8.74;95.78;101037.05;1699013;83;26108;-77
2022/11/06 02:31:01;;;;;;;32.10;13.20;;;;;;;8.70;95.89;101033.87;1685148;84;25782;-77
2022/11/06 02:33:33;;;;;;;27.22;12.33;;;;;;;8.68;95.98;101038.55;1693208;84;26422;-77
2022/11/06 02:36:10;;;;;;;26.52;13.55;;;;;;;8.68;96.03;101045.72;1696967;83;27348;-77
2022/11/06 02:38:50;;;;;;;26.00;13.55;;;;;;;8.66;95.95;101043.72;1694409;83;25799;-78
2022/11/06 02:41:21;;;;;;;23.32;12.78;;;;;;;8.64;95.82;101043.05;1687306;84;25708;-77
2022/11/06 02:43:53;;;;;;;;;;;;;;;8.60;95.76;101047.86;1707088;83;25803;-77
2022/11/06 02:46:39;;;;;;;21.97;11.63;;;;;;;8.57;95.77;101049.53;1677222;84;25827;-77
2022/11/06 02:49:25;;;;;;;28.17;13.15;;;;;;;8.54;95.71;101049.84;1688007;84;27625;-77
2022/11/06 02:51:56;;;;;;;21.62;12.70;;;;;;;8.51;95.63;101048.33;1688199;84;25811;-77
2022/11/06 02:54:23;;;;;;;;;;;;;;;8.47;95.51;101045.66;1692015;83;26522;-77
2022/11/06 02:56:53;;;;;;;21.90;12.80;;;;;;;8.46;95.41;101044.48;1691067;84;26279;-77
2022/11/06 02:59:31;;;;;;;32.50;12.93;;;;;;;8.42;95.52;101040.48;1685868;84;25917;-77
2022/11/06 03:02:02;;;;;;;23.95;13.55;;;;;;;8.41;95.53;101042.80;1719331;81;27639;-78
2022/11/06 03:04:46;;;;;;;25.88;13.03;;;;;;;8.39;95.38;101041.63;1708125;82;25837;-77
2022/11/06 03:07:58;;;;;;;23.40;13.05;;;;;;;8.36;95.06;101043.28;1686931;84;25853;-77
2022/11/06 03:10:33;;;;;;;22.02;12.47;;;;;;;8.32;94.76;101048.60;1644704;84;26338;-77
2022/11/06 03:13:05;;;;;;;23.20;11.80;;;;;;;8.26;94.36;101051.92;1690386;83;25937;-78
2022/11/06 03:15:38;;;;;;;23.40;12.50;;;;;;;8.21;94.22;101042.19;1696926;84;28347;-77
2022/11/06 03:18:16;;;;;;;20.92;12.13;;;;;;;8.19;94.12;101050.03;1693709;84;25857;-78
2022/11/06 03:20:59;;;;;;;23.85;12.07;;;;;;;8.16;93.85;101055.19;1687844;84;26497;-77
2022/11/06 03:23:40;;;;;;;25.20;11.25;;;;;;;8.12;93.70;101060.52;1691540;84;25829;-77
2022/11/06 03:26:10;;;;;;;;;;;;;;;8.08;93.46;101061.83;1718166;82;25905;-77
2022/11/06 03:28:45;;;;;;;20.92;10.80;;;;;;;8.03;93.31;101060.62;1712897;82;28646;-77
2022/11/06 03:31:16;;;;;;;20.25;11.97;;;;;;;7.97;93.40;101066.10;1681558;84;25831;-77
2022/11/06 03:33:55;;;;;;;;;;;;;;;7.93;93.32;101067.91;1689144;84;25691;-77
2022/11/06 03:36:30;;;;;;;20.52;11.55;;;;;;;7.91;93.36;101076.08;1631391;86;26491;-77
2022/11/06 03:39:16;;;;;;;22.80;12.13;;;;;;;7.86;93.40;101081.53;1678601;84;26555;-77
2022/11/06 03:42:03;;;;;;;22.35;13.40;;;;;;;7.83;93.31;101085.86;1705630;83;27504;-77
2022/11/06 03:44:32;;;;;;;19.32;12.85;;;;;;;7.78;93.41;101084.47;1679096;84;26412;-77
2022/11/06 03:47:10;;;;;;;35.88;14.45;;;;;;;7.77;93.76;101083.30;1690956;84;25816;-77
2022/11/06 03:49:44;;;;;;;33.40;14.90;;;;;;;7.76;93.85;101086.46;1692971;84;25827;-77
2022/11/06 03:52:23;;;;;;;33.10;16.00;;;;;;;7.74;94.08;101089.78;1686590;84;25863;-77
2022/11/06 03:54:54;;;;;;;27.25;14.80;;;;;;;7.73;94.32;101087.28;1693846;84;27497;-76
2022/11/06 03:57:26;;;;;;;25.43;15.35;;;;;;;7.72;94.50;101084.27;1680685;84;26027;-77
2022/11/06 03:59:57;;;;;;;25.35;14.75;;;;;;;7.71;94.58;101079.45;1690918;84;25788;-77
2022/11/06 04:02:27;;;;;;;29.80;14.80;;;;;;;7.73;94.74;101075.28;1687372;84;25958;-77
2022/11/06 04:05:02;;;;;;;30.77;16.02;;;;;;;7.72;94.65;101073.59;1691817;84;26450;-77
2022/11/06 04:13:55;;;;;;;26.35;15.18;;;;;;;7.70;94.45;101083.09;1665601;84;27656;-77
2022/11/06 04:15:44;;;;;;;35.70;14.83;;;;;;;7.61;94.24;101084.55;1626487;84;26748;-76
2022/11/06 04:18:13;;;;;;;40.35;14.98;;;;;;;7.53;94.31;101081.30;1698033;83;25787;-76
2022/11/06 04:21:21;;;;;;;26.23;14.40;;;;;;;7.50;94.40;101087.45;1698471;83;27500;-76
2022/11/06 04:27:24;;;;;;;27.00;15.13;;;;;;;7.44;94.58;101085.41;1718502;82;26491;-77
2022/11/06 04:30:11;;;;;;;28.95;14.05;;;;;;;7.41;94.50;101085.70;1691622;84;26544;-78
2022/11/06 04:33:14;;;;;;;39.63;14.60;;;;;;;7.38;94.72;101080.19;1690519;84;25868;-77
2022/11/06 04:36:07;;;;;;;22.32;13.62;;;;;;;7.39;94.80;101083.20;1685081;84;28698;-77
2022/11/06 04:38:54;;;;;;;26.52;13.15;;;;;;;7.36;94.93;101086.66;1690446;84;25817;-76
2022/11/06 04:41:48;;;;;;;24.47;14.65;;;;;;;7.35;95.15;101082.33;1694881;83;25848;-77
2022/11/06 04:44:26;;;;;;;24.90;12.35;;;;;;;7.35;95.15;101085.00;1708819;83;26589;-77
2022/11/06 04:47:00;;;;;;;24.92;12.82;;;;;;;7.32;95.16;101082.62;1703087;83;26444;-77
2022/11/06 04:49:30;;;;;;;37.05;13.25;;;;;;;7.30;95.19;101086.79;1698931;83;27487;-77
2022/11/06 04:51:57;;;;;;;20.27;13.88;;;;;;;7.30;95.34;101088.61;1680483;83;25929;-76
2022/11/06 04:54:24;;;;;;;32.65;14.43;;;;;;;7.30;95.41;101082.80;1695815;83;25299;-77
2022/11/06 04:56:50;;;;;;;28.55;14.58;;;;;;;7.30;95.47;101085.45;1696339;83;25833;-76
2022/11/06 04:59:17;;;;;;;37.38;14.07;;;;;;;7.32;95.59;101089.29;1694825;83;25729;-76
2022/11/06 05:01:45;;;;;;;43.02;15.25;;;;;;;7.30;95.40;101088.13;1689580;83;27485;-76
2022/11/06 05:04:12;;;;;;;51.48;14.35;;;;;;;7.22;95.23;101090.72;1685834;84;26566;-77
2022/11/06 05:06:38;;;;;;;52.35;16.17;;;;;;;7.20;95.48;101090.53;1664330;83;25978;-76
2022/11/06 05:09:04;;;;;;;40.08;15.88;;;;;;;7.13;95.34;101093.45;1683310;83;26535;-76
2022/11/06 05:11:31;;;;;;;42.58;16.15;;;;;;;7.09;95.49;101084.09;1688896;84;25846;-76
2022/11/06 05:13:57;;;;;;;51.00;13.03;;;;;;;7.08;95.61;101093.09;1692270;84;27485;-76
2022/11/06 05:16:23;;;;;;;42.25;15.28;;;;;;;7.03;95.52;101098.88;1699898;84;25777;-76
2022/11/06 05:18:50;;;;;;;77.08;16.40;;;;;;;6.94;95.48;101097.11;1697670;84;25637;-76
2022/11/06 05:24:00;;;;;;;67.47;15.80;;;;;;;6.91;96.05;101096.06;1699899;84;25759;-77
2022/11/06 05:26:27;;;;;;;24.20;14.70;;;;;;;6.92;96.33;101093.27;1691397;84;27459;-77
2022/11/06 05:28:53;;;;;;;36.13;17.85;;;;;;;6.94;96.41;101096.62;1698203;84;26592;-77
2022/11/06 05:31:19;;;;;;;48.80;16.73;;;;;;;6.96;96.56;101099.97;1702025;84;25787;-77
2022/11/06 05:33:46;;;;;;;38.80;16.85;;;;;;;7.01;96.60;101103.52;1699596;84;25851;-77
2022/11/06 05:36:12;;;;;;;36.48;17.87;;;;;;;7.02;96.65;101111.83;1692684;84;25805;-77
2022/11/06 05:38:39;;;;;;;37.55;17.23;;;;;;;7.04;96.74;101108.52;1693937;84;28277;-77
2022/11/06 05:41:05;;;;;;;35.40;18.65;;;;;;;7.04;96.59;101104.52;1715437;83;25760;-77
2022/11/06 05:43:31;;;;;;;33.25;19.40;;;;;;;7.01;96.53;101104.33;1671836;83;26472;-77
2022/11/06 05:45:59;;;;;;;40.48;17.62;;;;;;;7.01;96.69;101099.00;1680973;84;26623;-77
2022/11/06 05:48:28;;;;;;;47.78;18.07;;;;;;;7.01;96.58;101101.66;1709633;82;25883;-77
2022/11/06 05:51:04;;;;;;;47.78;18.07;;;;;;;6.96;96.55;101105.78;1687731;83;27533;-77
2022/11/06 05:53:33;;;;;;;42.93;19.00;;;;;;;6.94;96.61;101103.77;1685731;83;25855;-78
2022/11/06 05:55:59;;;;;;;38.88;17.95;;;;;;;6.89;96.64;101104.22;1681231;84;26403;-77
2022/11/06 05:58:26;;;;;;;47.85;19.45;;;;;;;6.89;96.87;101111.36;1680512;84;25757;-77
2022/11/06 06:00:54;;;;;;;48.78;18.70;;;;;;;6.87;96.90;101112.00;1706292;83;25751;-77
2022/11/06 06:03:21;;;;;;;34.05;18.52;;;;;;;6.86;96.99;101116.48;1708620;83;27457;-77
2022/11/06 06:05:47;;;;;;;39.55;20.48;;;;;;;6.87;97.10;101116.84;1706736;82;25743;-77
2022/11/06 06:08:14;;;;;;;46.48;19.82;;;;;;;6.92;97.38;101117.73;1700707;82;25827;-77
2022/11/06 06:10:42;;;;;;;46.08;20.95;;;;;;;6.95;97.44;101120.91;1717695;82;25779;-77
2022/11/06 06:13:09;;;;;;;44.53;20.68;;;;;;;7.00;97.50;101114.66;1705199;82;26046;-78
2022/11/06 06:15:38;;;;;;;35.03;17.90;;;;;;;7.05;97.46;101120.02;1696767;84;28297;-77
2022/11/06 06:18:06;;;;;;;37.48;16.52;;;;;;;7.09;97.47;101125.38;1694903;84;25929;-77
2022/11/06 06:20:33;;;;;;;32.78;16.00;;;;;;;7.08;97.41;101121.87;1699275;84;25487;-77
2022/11/06 06:23:00;;;;;;;31.87;15.83;;;;;;;7.09;97.33;101122.72;1667479;84;25911;-77
2022/11/06 06:25:28;;;;;;;28.83;15.95;;;;;;;7.09;97.12;101128.05;1694342;84;26422;-77
2022/11/06 06:27:56;;;;;;;26.75;15.75;;;;;;;7.09;97.06;101130.71;1716392;82;27425;-77
2022/11/06 06:30:23;;;;;;;36.35;15.58;;;;;;;7.07;97.10;101138.02;1672751;84;25748;-77
2022/11/06 06:32:51;;;;;;;30.70;15.53;;;;;;;7.09;97.13;101146.69;1692191;84;25793;-78
2022/11/06 06:35:17;;;;;;;31.23;13.72;;;;;;;7.06;96.97;101145.16;1712029;83;25878;-77
2022/11/06 06:37:53;;;;;;;29.45;12.82;;;;;;;7.01;96.42;101146.13;1712528;82;26545;-77
2022/11/06 06:40:20;;;;;;;22.17;12.98;;;;;;;6.92;96.07;101151.86;1700418;83;28277;-77
2022/11/06 06:42:47;;;;;;;17.35;11.57;;;;;;;6.85;96.05;101156.10;1709700;82;25851;-77
2022/11/06 06:45:13;;;;;;;34.67;13.68;;;;;;;6.85;96.36;101148.59;1716518;82;26371;-77
2022/11/06 06:47:40;;;;;;;40.33;21.20;;;;;;;6.84;96.33;101146.42;1701546;82;25916;-77
2022/11/06 06:50:08;;;;;;;39.95;16.97;;;;;;;6.87;96.43;101151.95;1700576;82;25770;-77
2022/11/06 06:52:34;;;;;;;37.63;13.28;;;;;;;6.88;96.44;101149.16;1687897;83;27545;-77
2022/11/06 06:55:00;;;;;;;27.52;13.18;;;;;;;6.89;96.44;101153.48;1696116;84;25767;-77
2022/11/06 06:57:26;;;;;;;22.58;12.50;;;;;;;6.86;96.07;101159.09;1694006;84;25844;-77
2022/11/06 06:59:53;;;;;;;25.08;13.68;;;;;;;6.87;96.20;101161.27;1693852;84;25805;-77
2022/11/06 07:02:19;;;;;;;18.82;13.53;;;;;;;6.87;96.18;101166.59;1689732;84;25834;-77
2022/11/06 07:04:45;;;;;;;19.45;12.53;;;;;;;6.84;96.11;101169.05;1686740;84;27461;-77
2022/11/06 07:07:12;;;;;;;25.43;13.20;;;;;;;6.86;96.02;101173.73;1690177;84;25278;-77
2022/11/06 07:09:38;;;;;;;25.92;14.40;;;;;;;6.80;95.37;101179.66;1686910;84;26471;-77
2022/11/06 07:12:05;;;;;;;24.47;13.50;;;;;;;6.73;95.60;101187.07;1696413;84;26612;-77
2022/11/06 07:14:31;;;;;;;22.62;12.70;;;;;;;6.76;96.02;101187.61;1687291;84;25903;-77
2022/11/06 07:16:57;;;;;;;25.80;13.18;;;;;;;6.79;96.26;101190.47;1692044;84;28323;-77
2022/11/06 07:19:23;;;;;;;24.90;13.62;;;;;;;6.83;96.45;101191.36;1692255;84;26382;-77
2022/11/06 07:21:51;;;;;;;24.37;13.68;;;;;;;6.84;96.30;101187.69;1692057;84;26239;-77
2022/11/06 07:24:18;;;;;;;21.73;12.98;;;;;;;6.89;96.70;101192.58;1691405;84;26525;-78
2022/11/06 07:26:44;;;;;;;25.23;13.35;;;;;;;6.94;96.84;101195.65;1691944;84;26339;-76
2022/11/06 07:29:11;;;;;;;23.57;14.35;;;;;;;6.98;97.03;101189.03;1689412;84;28280;-77
2022/11/06 07:31:37;;;;;;;23.98;14.38;;;;;;;6.99;96.63;101191.53;1690776;84;26290;-76
2022/11/06 07:34:03;;;;;;;22.82;14.45;;;;;;;7.02;96.72;101194.40;1690945;84;25932;-76
2022/11/06 07:36:31;;;;;;;21.12;13.65;;;;;;;7.01;96.51;101194.07;1693677;84;25818;-76
2022/11/06 07:38:58;;;;;;;27.82;14.30;;;;;;;7.03;96.63;101199.23;1689100;84;25901;-76
2022/11/06 07:41:24;;;;;;;23.38;14.65;;;;;;;7.06;96.58;101194.95;1695281;84;27454;-76
2022/11/06 07:43:50;;;;;;;28.35;15.25;;;;;;;7.09;96.73;101199.48;1694883;84;25780;-77
2022/11/06 07:46:16;;;;;;;24.07;15.08;;;;;;;7.07;96.56;101197.47;1691718;84;26463;-76
2022/11/06 07:48:42;;;;;;;31.52;16.82;;;;;;;7.08;96.64;101199.64;1696973;84;26297;-76
2022/11/06 07:51:10;;;;;;;32.05;18.30;;;;;;;7.10;96.72;101194.48;1693592;84;25853;-76
2022/11/06 07:53:37;;;;;;;28.32;15.78;;;;;;;7.12;96.69;101192.50;1695627;84;28251;-76
2022/11/06 07:56:07;;;;;;;33.05;16.57;;;;;;;7.13;96.65;101190.20;1694308;84;26416;-76
2022/11/06 07:58:34;;;;;;;32.15;16.05;;;;;;;7.12;96.63;101183.19;1693489;84;26484;-76
2022/11/06 08:01:01;;;;;;;23.90;15.53;;;;;;;7.15;96.96;101186.89;1694734;84;26747;-76
2022/11/06 08:03:29;;;;;;;37.50;16.82;;;;;;;7.16;97.11;101187.25;1696658;84;26567;-76
2022/11/06 08:05:57;;;;;;;33.15;17.75;;;;;;;7.21;97.24;101190.28;1705202;83;27463;-76
2022/11/06 08:08:23;;;;;;;35.23;17.80;;;;;;;7.24;97.23;101195.80;1693978;83;25928;-76
2022/11/06 08:10:52;;;;;;;43.80;15.05;;;;;;;7.24;97.15;101193.98;1694890;83;25834;-76
2022/11/06 08:13:18;;;;;;;30.75;16.05;;;;;;;7.23;96.90;101195.48;1689205;83;27035;-76
2022/11/06 08:15:45;;;;;;;34.88;16.15;;;;;;;7.24;97.12;101195.80;1697084;83;25910;-77
2022/11/06 08:18:11;;;;;;;34.48;19.15;;;;;;;7.24;97.11;101195.32;1696052;83;26931;-77
2022/11/06 08:20:39;;;;;;;38.83;17.20;;;;;;;7.30;97.45;101204.03;1700803;83;25947;-77
2022/11/06 08:23:09;;;;;;;37.35;15.70;;;;;;;7.31;97.62;101191.07;1703093;82;25796;-76
2022/11/06 08:25:36;;;;;;;35.75;17.60;;;;;;;7.37;97.78;101193.13;1708565;82;25870;-76
2022/11/06 08:28:03;;;;;;;38.02;17.42;;;;;;;7.42;97.77;101191.34;1714036;82;25953;-76
2022/11/06 08:30:30;;;;;;;25.35;16.80;;;;;;;7.45;97.92;101188.35;1677715;84;27461;-76
2022/11/06 08:33:04;;;;;;;46.50;18.67;;;;;;;7.50;97.90;101188.75;1702647;83;25774;-76
2022/11/06 08:35:33;;;;;;;32.00;20.27;;;;;;;7.51;97.71;101184.59;1689146;84;25324;-76
2022/11/06 08:38:00;;;;;;;39.88;16.97;;;;;;;7.51;97.63;101189.07;1691275;84;26564;-76
2022/11/06 08:40:26;;;;;;;31.17;18.52;;;;;;;7.54;97.68;101188.78;1687239;84;25738;-76
2022/11/06 08:42:52;;;;;;;35.15;16.97;;;;;;;7.57;98.16;101188.48;1692556;84;27455;-76
2022/11/06 08:45:19;;;;;;;37.60;16.97;;;;;;;7.59;97.78;101194.50;1691221;84;25829;-76
2022/11/06 08:47:45;;;;;;;30.32;18.02;;;;;;;7.53;97.12;101192.42;1692947;84;25821;-76
2022/11/06 08:50:11;;;;;;;33.75;19.15;;;;;;;7.46;97.42;101194.05;1687849;84;25778;-76
2022/11/06 08:52:37;;;;;;;30.48;18.42;;;;;;;7.50;98.27;101188.75;1695815;84;26472;-76
2022/11/06 08:55:04;;;;;;;39.13;20.43;;;;;;;7.59;98.98;101192.65;1691595;84;27460;-77
2022/11/06 08:57:32;;;;;;;41.63;20.23;;;;;;;7.66;99.17;101195.54;1693325;84;44332;-76
2022/11/06 08:59:58;;;;;;;33.48;20.97;;;;;;;7.70;99.00;101192.42;1690830;84;25766;-76
2022/11/06 09:02:25;;;;;;;40.33;19.32;;;;;;;7.73;98.91;101201.95;1691057;84;26566;-76
2022/11/06 09:04:51;;;;;;;41.45;19.90;;;;;;;7.73;98.64;101202.79;1692216;84;26048;-76
2022/11/06 09:07:18;;;;;;;39.63;19.50;;;;;;;7.75;98.82;101203.47;1685210;84;28321;-76
2022/11/06 09:09:44;;;;;;;29.80;17.75;;;;;;;7.78;98.78;101208.48;1697511;84;26364;-76
2022/11/06 09:12:10;;;;;;;42.53;19.05;;;;;;;7.79;99.10;101206.17;1696394;84;25857;-76
2022/11/06 09:14:37;;;;;;;30.60;18.95;;;;;;;7.84;99.14;101211.53;1696670;84;26549;-76
2022/11/06 09:17:04;;;;;;;35.60;19.35;;;;;;;7.87;99.05;101212.05;1696111;84;25781;-76
2022/11/06 09:19:30;;;;;;;37.28;18.98;;;;;;;7.89;99.15;101212.73;1696441;84;27470;-76
2022/11/06 09:21:56;;;;;;;36.95;18.35;;;;;;;7.92;99.02;101209.77;1695544;84;25992;-76
2022/11/06 09:24:23;;;;;;;38.02;19.05;;;;;;;7.89;98.37;101211.40;1696219;82;25895;-76
2022/11/06 09:26:49;;;;;;;36.38;20.97;;;;;;;7.92;98.66;101211.59;1692748;84;25789;-76
2022/11/06 09:29:15;;;;;;;42.25;19.27;;;;;;;7.95;98.94;101209.47;1695522;84;25862;-76
2022/11/06 09:31:42;;;;;;;38.35;18.55;;;;;;;7.98;98.84;101205.14;1687423;84;28308;-76
2022/11/06 09:34:08;;;;;;;32.80;18.23;;;;;;;8.01;98.93;101204.84;1695605;84;25946;-76
2022/11/06 09:36:36;;;;;;;38.10;27.40;;;;;;;8.03;98.80;101206.02;1693644;84;25982;-76
2022/11/06 09:39:02;;;;;;;34.63;22.85;;;;;;;8.03;98.80;101212.20;1694268;84;26539;-76
2022/11/06 09:41:53;;;;;;;34.05;25.37;;;;;;;8.05;98.95;101207.54;1692649;84;25749;-76
2022/11/06 09:44:30;;;;;;;35.33;18.80;;;;;;;8.09;99.14;101199.56;1695737;84;31251;-76
2022/11/06 09:47:00;;;;;;;29.37;17.40;;;;;;;8.13;98.97;101210.26;1687977;84;25952;-76
2022/11/06 09:49:43;;;;;;;32.70;19.07;;;;;;;8.10;98.44;101213.26;1663422;84;25883;-76
2022/11/06 09:52:40;;;;;;;36.08;20.10;;;;;;;8.12;98.71;101213.09;1692682;84;25840;-77
2022/11/06 09:55:20;;;;;;;34.63;19.45;;;;;;;8.10;98.95;101210.59;1684260;84;26180;-77
2022/11/06 09:58:04;;;;;;;51.50;31.70;;;;;;;8.14;99.36;101209.77;1696233;84;28283;-76
2022/11/06 10:00:31;;;;;;;41.95;27.90;;;;;;;8.17;99.46;101217.47;1688830;84;25949;-76
2022/11/06 10:03:44;;;;;;;44.95;26.00;;;;;;;8.17;99.22;101210.28;1689433;84;25910;-76
2022/11/06 10:06:11;;;;;;;35.33;22.17;;;;;;;8.21;99.55;101205.49;1697091;84;25853;-77
2022/11/06 10:08:42;;;;;;;38.65;21.27;;;;;;;8.30;99.89;101210.74;1694316;84;25804;-77
2022/11/06 10:11:20;;;;;;;37.73;24.20;;;;;;;8.37;100.00;101210.95;1696273;84;27482;-77
2022/11/06 10:14:33;;;;;;;40.33;24.07;;;;;;;8.42;99.90;101211.33;1692324;84;25926;-77
2022/11/06 10:17:11;;;;;;;37.80;22.67;;;;;;;8.45;99.49;101209.16;1688740;84;25800;-77
2022/11/06 10:19:52;;;;;;;37.85;23.70;;;;;;;8.48;99.06;101211.53;1649084;84;25935;-76
2022/11/06 10:22:26;;;;;;;37.83;23.63;;;;;;;8.51;98.83;101210.38;1681698;84;26329;-77
2022/11/06 10:25:22;;;;;;;44.88;24.07;;;;;;;8.51;98.70;101205.05;1685843;83;28686;-77
2022/11/06 10:28:02;;;;;;;41.55;25.45;;;;;;;8.53;98.68;101208.39;1696369;84;26359;-77
2022/11/06 10:30:36;;;;;;;38.35;24.70;;;;;;;8.57;98.95;101204.89;1694636;83;25750;-77
2022/11/06 10:33:40;;;;;;;39.42;24.52;;;;;;;8.62;99.31;101203.41;1639053;84;26595;-77
2022/11/06 10:36:26;;;;;;;46.33;26.00;;;;;;;8.65;99.01;101200.43;1695845;84;25953;-77
2022/11/06 10:38:55;;;;;;;43.08;26.85;;;;;;;8.67;98.79;101197.09;1686185;84;27449;-77
2022/11/06 10:41:30;;;;;;;39.35;25.12;;;;;;;8.72;98.71;101192.63;1692889;84;26518;-77
2022/11/06 10:44:14;;;;;;;38.50;24.90;;;;;;;8.77;98.99;101187.13;1696503;84;25799;-76
2022/11/06 10:46:55;;;;;;;37.58;22.87;;;;;;;8.82;98.96;101178.63;1719762;81;25827;-77
2022/11/06 10:49:41;;;;;;;;;;;;;;;8.85;99.07;101180.98;1681595;84;25769;-77
2022/11/06 10:52:25;;;;;;;43.83;24.55;;;;;;;8.86;98.52;101179.48;1712100;82;28685;-77
2022/11/06 10:55:38;;;;;;;45.60;27.35;;;;;;;8.82;98.61;101183.48;1711312;83;26247;-77
2022/11/06 10:58:15;;;;;;;39.67;23.60;;;;;;;8.85;98.78;101171.64;1709375;82;26453;-77
2022/11/06 11:00:42;;;;;;;47.30;27.67;;;;;;;8.89;99.12;101172.50;1706936;82;26564;-77
2022/11/06 11:03:34;;;;;;;42.20;27.45;;;;;;;8.94;99.18;101174.69;1694756;84;26454;-77
2022/11/06 11:06:03;;;;;;;155.70;75.35;;;;;;;8.97;99.34;101174.34;1697312;84;27448;-77
2022/11/06 11:08:50;;;;;;;126.22;60.85;;;;;;;9.02;99.48;101169.36;1691609;84;26441;-77
2022/11/06 11:11:23;;;;;;;187.35;91.08;;;;;;;9.07;99.61;101158.99;1692461;84;25737;-77
2022/11/06 11:14:01;;;;;;;62.80;35.48;;;;;;;9.11;99.65;101156.36;1696689;84;26183;-77
2022/11/06 11:16:31;;;;;;;69.95;36.38;;;;;;;9.16;99.71;101153.52;1680194;84;26185;-77
2022/11/06 11:19:26;;;;;;;53.15;26.85;;;;;;;9.19;99.47;101142.52;1690763;84;27479;-76
2022/11/06 11:22:03;;;;;;;36.33;20.50;;;;;;;9.24;99.62;101136.15;1691907;84;25997;-77
2022/11/06 11:24:29;;;;;;;28.80;18.60;;;;;;;9.30;99.71;101140.02;1690748;84;25833;-77
2022/11/06 11:27:03;;;;;;;26.52;17.05;;;;;;;9.34;99.64;101134.15;1694248;84;26498;-77
2022/11/06 11:29:46;;;;;;;84.92;36.45;;;;;;;9.38;99.21;101130.66;1691007;84;25301;-77
2022/11/06 11:32:16;;;;;;;152.50;69.10;;;;;;;9.39;99.09;101124.30;1693972;84;27529;-77
2022/11/06 11:34:51;;;;;;;33.75;22.50;;;;;;;9.41;98.98;101124.97;1691919;84;26702;-77
2022/11/06 11:37:28;;;;;;;89.72;44.10;;;;;;;9.43;98.94;101126.16;1689215;84;25782;-77
2022/11/06 11:39:55;;;;;;;33.85;19.32;;;;;;;9.47;99.07;101125.66;1694107;84;25771;-77
2022/11/06 11:42:30;;;;;;;33.70;18.87;;;;;;;9.50;99.22;101125.31;1695811;84;25825;-77
2022/11/06 11:45:12;;;;;;;32.93;19.98;;;;;;;9.56;99.36;101127.31;1695084;84;27445;-77
2022/11/06 11:47:50;;;;;;;36.58;20.88;;;;;;;9.61;99.25;101134.34;1696354;84;26428;-77
2022/11/06 11:50:32;;;;;;;30.90;17.62;;;;;;;9.68;99.14;101135.84;1662366;84;25808;-78
2022/11/06 11:53:20;;;;;;;29.25;18.37;;;;;;;9.70;98.69;101134.69;1697363;84;26569;-77
2022/11/06 11:55:51;;;;;;;25.62;16.23;;;;;;;9.73;98.54;101129.50;1691088;84;25264;-77